Graceful Lady — 00 — position and weather

sailwx.info

Track history (hours):
 
Tides and Currents Weather Stations Pressure Air Temp Water Temp Dewpoint Dewpoint Depression Visibility Wind Speed Wind Dir Waves Ship Positions

Graceful Lady

Last reported at 2017-Mar-29 14:33 UTC. Time now 2017-Mar-29 15:19 UTC.
Position N 37°42' E 121°24'.

Length 6 m.

Type: Pollution control. MMSI: 316014038.

Date/timePositionNaut miles runAvg speedWind from/ knotsBaromVisibWave heightAir tempDewpointWater temp
2017-Mar-29 14:33N 37°42' E 121°24'81681619.0
2017-Mar-29 14:33N 24°26' E 117°53'811816.6
2017-Mar-29 13:33N 37°36' E 121°27'8118220.8
2017-Mar-29 13:27N 24°26' E 117°53'0 0.0
2017-Mar-29 12:31N 24°26' E 117°53'809416212.7
2017-Mar-29 12:31N 37°35' E 121°23'809824.4
2017-Mar-29 11:32N 24°26' E 117°53'80944822.9
2017-Mar-29 11:31N 37°35' E 121°23'809843.0
2017-Mar-29 10:33N 24°26' E 117°53'8099048.0
2017-Mar-29 10:28N 37°35' E 121°23'809886.1
2017-Mar-29 09:33N 24°26' E 117°53'8099338.0
2017-Mar-29 09:28N 37°35' E 121°23'809897.0
2017-Mar-29 08:34N 24°26' E 117°53'8098253.4
2017-Mar-29 08:28N 37°35' E 121°23'809886.4
2017-Mar-29 07:33N 24°26' E 117°53'80921581.2
2017-Mar-29 07:31N 37°35' E 121°23'809845.7
2017-Mar-29 06:33N 24°26' E 117°53'80919167.7
2017-Mar-29 06:31N 37°35' E 121°23'809849.9
2017-Mar-29 05:34N 24°26' E 117°53'8098276.9
2017-Mar-29 05:28N 37°35' E 121°23'589373924.3
2017-Mar-29 05:23N 33°37' W 117°55'65407948.5
2017-Mar-29 04:33N 24°26' E 117°53'8098300.1
2017-Mar-29 04:28N 37°35' E 121°23'589342688.9
2017-Mar-29 04:19N 33°37' W 117°55'58947679.2
2017-Mar-29 03:33N 37°34' E 121°24'808363763.5
2017-Mar-29 03:33N 24°26' E 117°53'0 0.0
2017-Mar-29 02:33N 24°26' E 117°53'456126202.6
2017-Mar-29 02:33N 21°12' E 110°26'1137314930.2
2017-Mar-29 02:33N 37°34' E 121°23'808814.2
2017-Mar-29 01:33N 24°26' E 117°53'808111927.4
2017-Mar-29 01:33N 37°34' E 121°23'808814.5
2017-Mar-29 00:34N 24°26' E 117°53'808111927.4
2017-Mar-29 00:33N 37°34' E 121°23'589446127.7
2017-Mar-29 00:25N 33°37' W 117°55'58946753.3
2017-Mar-28 23:33N 37°34' E 121°23'808132277.9
2017-Mar-28 23:33N 24°26' E 117°53'0 0.0
2017-Mar-28 22:33N 24°26' E 117°53'808323345.9
2017-Mar-28 22:33N 37°34' E 121°23'808814.2
2017-Mar-28 21:33N 24°26' E 117°53'808111927.4
2017-Mar-28 21:33N 37°34' E 121°23'808814.0
2017-Mar-28 20:33N 24°26' E 117°53'808121254.7
2017-Mar-28 20:33N 37°34' E 121°23'33619843.1
2017-Mar-28 20:32N 32°00' E 120°35'6 6.4
2017-Mar-28 19:33N 32°02' E 120°28'476571213.0
2017-Mar-28 19:33N 24°26' E 117°53'80814772.1
2017-Mar-28 19:30N 37°34' E 121°23'808857.2
2017-Mar-28 18:33N 24°26' E 117°53'808107782.0
2017-Mar-28 18:33N 37°34' E 121°23'0 0.0
2017-Mar-28 17:33N 37°34' E 121°23'808223854.8
2017-Mar-28 17:33N 24°26' E 117°53'692311370.6
2017-Mar-28 17:33N 35°48' E 120°09'692701.5
2017-Mar-28 16:34N 24°26' E 117°53'699359583.2
2017-Mar-28 16:33N 35°54' E 120°18'1132024.8
2017-Mar-28 16:30N 37°34' E 121°23'808855.9
2017-Mar-28 15:33N 24°26' E 117°53'808145505.6
2017-Mar-28 15:33N 37°34' E 121°23'1069337.0
2017-Mar-28 15:32N 36°01' E 120°19'706719.9
2017-Mar-28 14:33N 24°26' E 117°53'808103932.6
2017-Mar-28 14:33N 37°34' E 121°23'110659.9
2017-Mar-28 14:23N 35°60' E 120°12'704850.6
2017-Mar-28 13:33N 24°26' E 117°53'808161671.8
2017-Mar-28 13:33N 37°34' E 121°23'1103566.8
2017-Mar-28 13:31N 35°60' E 120°12'0 0.0
2017-Mar-28 12:34N 35°60' E 120°12'704230448.5
2017-Mar-28 12:33N 24°26' E 117°53'808121250.3
2017-Mar-28 12:33N 37°34' E 121°23'6 5.8
2017-Mar-28 11:33N 37°37' E 121°29'812974784.7
2017-Mar-28 11:33N 24°26' E 117°53'704281657.0
2017-Mar-28 11:33N 35°60' E 120°12'704705.9
2017-Mar-28 10:33N 24°26' E 117°53'81639145.2
2017-Mar-28 10:32N 37°40' E 121°31'1181875.0
2017-Mar-28 10:28N 35°60' E 120°12'704768.6
2017-Mar-28 09:33N 24°26' E 117°53'81611424.2
2017-Mar-28 09:29N 37°40' E 121°31'1181360.3
2017-Mar-28 09:24N 35°60' E 120°12'704833.3
2017-Mar-28 08:33N 24°26' E 117°53'81646605.1
2017-Mar-28 08:32N 37°40' E 121°31'816834.8
2017-Mar-28 07:34N 24°26' E 117°53'45630382.3
2017-Mar-28 07:33N 21°12' E 110°26'10276233.1
2017-Mar-28 07:23N 35°60' E 120°12'0 0.0
2017-Mar-28 06:33N 35°60' E 120°12'70435703.3
2017-Mar-28 06:32N 24°26' E 117°53'0 0.0
2017-Mar-28 05:33N 24°26' E 117°53'7045100.5
2017-Mar-28 05:25N 35°60' E 120°12'704811.7
2017-Mar-28 04:33N 24°26' E 117°53'70652981.7
2017-Mar-28 04:32N 36°02' E 120°15'7 7.0
2017-Mar-28 03:33N 35°57' E 120°21'703210806.5
2017-Mar-28 03:33N 24°26' E 117°53'0 0.0
2017-Mar-28 02:33N 24°26' E 117°53'695139010.1
2017-Mar-28 02:33N 35°50' E 120°13'695702.3
2017-Mar-28 01:33N 24°26' E 117°53'0 0.0
2017-Mar-28 00:34N 24°26' E 117°53'0 0.0
2017-Mar-27 23:34N 24°26' E 117°53'0 0.0
2017-Mar-27 22:34N 24°26' E 117°53'0 0.0
2017-Mar-27 21:33N 24°26' E 117°53'0 0.0
2017-Mar-27 20:34N 24°26' E 117°53'0 0.0
2017-Mar-27 19:34N 24°26' E 117°53'0 0.0
2017-Mar-27 18:33N 24°26' E 117°53'1079642430.9
2017-Mar-27 18:18N 27°52' W 082°33'1079614486.3
2017-Mar-27 17:34N 24°26' E 117°53'0 0.0
2017-Mar-27 16:33N 24°26' E 117°53'0 0.0
2017-Mar-27 15:33N 24°26' E 117°53'0 0.0
2017-Mar-27 14:33N 24°26' E 117°53'0 0.0
2017-Mar-27 13:34N 24°26' E 117°53'0 0.0
2017-Mar-27 12:34N 24°26' E 117°53'0 0.0
2017-Mar-27 11:34N 24°26' E 117°53'6902445.1
2017-Mar-27 11:17N 35°46' E 120°07'7 9.1
2017-Mar-27 10:34N 35°51' E 120°13'695695.2
2017-Mar-27 09:34N 24°26' E 117°53'704422115.5
2017-Mar-27 09:33N 35°58' E 120°21'704704.7
2017-Mar-27 08:34N 24°26' E 117°53'70519230.3
2017-Mar-27 08:31N 36°01' E 120°14'111770.1
2017-Mar-27 08:23N 37°36' E 121°25'810985.3
2017-Mar-27 07:33N 24°26' E 117°53'0 0.0
2017-Mar-27 06:33N 24°26' E 117°53'0 0.0
2017-Mar-27 05:33N 24°26' E 117°53'7053266.3
2017-Mar-27 05:20N 36°00' E 120°13'705862.1
2017-Mar-27 04:30N 24°26' E 117°53'0 0.0
2017-Mar-27 03:33N 24°26' E 117°53'70511083.0
2017-Mar-27 03:29N 36°01' E 120°13'705744.3
2017-Mar-27 02:33N 24°26' E 117°53'7041980.7
2017-Mar-27 02:11N 35°60' E 120°13'7041120.8
2017-Mar-27 01:33N 24°26' E 117°53'70414323.7
2017-Mar-27 01:31N 35°60' E 120°13'704738.9
2017-Mar-27 00:33N 24°26' E 117°53'81023906.7
2017-Mar-27 00:31N 37°36' E 121°25'1122565.2
2017-Mar-27 00:29N 35°60' E 120°13'704766.0
2017-Mar-26 23:34N 24°26' E 117°53'70612160.0
2017-Mar-26 23:30N 36°01' E 120°14'1101195.4
2017-Mar-26 23:25N 37°36' E 121°25'1031038542.0
2017-Mar-26 23:08N 27°53' W 082°32'1034217746.7
2017-Mar-26 22:34N 35°59' E 120°21'7041268091.2
2017-Mar-26 22:33N 24°26' E 117°53'0 0.0
2017-Mar-26 21:33N 24°26' E 117°53'697358482.9
2017-Mar-26 21:33N 35°52' E 120°15'118313.9
2017-Mar-26 21:11N 37°36' E 121°25'8101299.7
2017-Mar-26 20:34N 24°26' E 117°53'0 0.0
2017-Mar-26 19:33N 24°26' E 117°53'0 0.0
2017-Mar-26 18:34N 24°26' E 117°53'8105134.9
2017-Mar-26 18:24N 37°36' E 121°25'810961.3
2017-Mar-26 17:33N 24°26' E 117°53'0 0.0
2017-Mar-26 16:34N 24°26' E 117°53'0 0.0
2017-Mar-26 15:33N 24°26' E 117°53'716468770.4
2017-Mar-26 15:27N 05°18' W 004°03'71647996.6
2017-Mar-26 14:33N 24°26' E 117°53'81016666.5
2017-Mar-26 14:30N 37°36' E 121°25'7270415415.4
2017-Mar-26 14:29N 05°16' W 004°02'71637496.4
2017-Mar-26 13:32N 24°26' E 117°53'0 0.0
2017-Mar-26 12:34N 24°26' E 117°53'810291662.1
2017-Mar-26 12:33N 37°36' E 121°25'810812.4
2017-Mar-26 11:34N 24°26' E 117°53'8107028.0
2017-Mar-26 11:27N 37°36' E 121°25'810910.0
2017-Mar-26 10:33N 24°26' E 117°53'81058332.4
2017-Mar-26 10:32N 37°36' E 121°25'810812.2
2017-Mar-26 09:33N 24°26' E 117°53'81072915.0
2017-Mar-26 09:32N 37°36' E 121°25'810833.1
2017-Mar-26 08:33N 24°26' E 117°53'810162033.3
2017-Mar-26 08:33N 37°36' E 121°25'727053410.6
2017-Mar-26 08:25N 05°16' W 004°02'72708456.0
2017-Mar-26 07:33N 37°36' E 121°25'1139341786.2
2017-Mar-26 07:33N 21°12' E 110°26'45668360.1
2017-Mar-26 07:33N 24°26' E 117°53'7163599709.8
2017-Mar-26 07:32N 05°16' W 004°02'0 0.0
2017-Mar-26 06:33N 05°16' W 004°02'72704361871.0
2017-Mar-26 06:33N 37°36' E 121°25'810416657.1
2017-Mar-26 06:33N 24°26' E 117°53'6921808.0
2017-Mar-26 06:10N 35°48' E 120°09'123202.1
2017-Mar-26 05:34N 37°36' E 121°25'8102916599.5
2017-Mar-26 05:34N 24°26' E 117°53'69796533.9
2017-Mar-26 05:33N 35°52' E 120°15'234765.0
2017-Mar-26 05:15N 31°58' E 120°26'472687.2
2017-Mar-26 04:34N 24°26' E 117°53'810100573.1
2017-Mar-26 04:33N 37°36' E 121°25'34022694.5
2017-Mar-26 04:32N 31°59' E 120°26'242144908.5
2017-Mar-26 04:32N 36°00' E 120°20'722318639.4
2017-Mar-26 04:09N 05°16' W 004°02'727012144.4
2017-Mar-26 03:33N 37°36' E 121°25'810132573.7
2017-Mar-26 03:32N 24°26' E 117°53'47268011.7
2017-Mar-26 03:32N 31°59' E 120°26'340348.8
2017-Mar-26 02:34N 37°36' E 121°25'8102916516.1
2017-Mar-26 02:34N 24°26' E 117°53'70421852.5
2017-Mar-26 02:32N 35°60' E 120°12'704727.6
2017-Mar-26 01:34N 24°26' E 117°53'810324059.7
2017-Mar-26 01:33N 37°36' E 121°25'0 0.0
2017-Mar-26 00:33N 37°36' E 121°25'8102916558.2
2017-Mar-26 00:33N 24°26' E 117°53'4742316.5
2017-Mar-26 00:21N 32°01' E 120°23'474593.7
2017-Mar-25 23:33N 24°26' E 117°53'81031027.2
2017-Mar-25 23:31N 37°36' E 121°25'1124478.9
2017-Mar-25 23:30N 35°60' E 120°12'704748.2
2017-Mar-25 22:34N 24°26' E 117°53'47313610.8
2017-Mar-25 22:31N 31°59' E 120°26'2413949.2
2017-Mar-25 22:28N 35°60' E 120°13'112340.5
2017-Mar-25 22:08N 37°36' E 121°25'8101406.9
2017-Mar-25 21:34N 24°26' E 117°53'81085781.1
2017-Mar-25 21:33N 37°36' E 121°25'34024987.8
2017-Mar-25 21:32N 31°59' E 120°26'242907.9
2017-Mar-25 21:16N 36°00' E 120°13'705992.2
2017-Mar-25 20:34N 24°26' E 117°53'8092913913.9
2017-Mar-25 20:33N 37°35' E 121°25'3394627.4
2017-Mar-25 20:29N 31°59' E 120°26'473510.0
2017-Mar-25 19:33N 24°26' E 117°53'814732377.0
2017-Mar-25 19:33N 37°40' E 121°22'113913.5
2017-Mar-25 19:26N 36°00' E 120°13'2422931.8
2017-Mar-25 19:21N 31°59' E 120°26'473596.7
2017-Mar-25 18:34N 24°26' E 117°53'47324655.7
2017-Mar-25 18:32N 31°59' E 120°26'3494121.2
2017-Mar-25 18:27N 37°46' E 121°13'7258146798.0
2017-Mar-25 18:24N 05°16' W 004°02'71638460.5
2017-Mar-25 17:34N 24°26' E 117°53'7163101127.5
2017-Mar-25 17:29N 05°16' W 004°02'7216214705.7
2017-Mar-25 17:27N 36°01' E 120°13'2422011.8
2017-Mar-25 17:20N 31°59' E 120°26'3562958.1
2017-Mar-25 17:13N 37°53' E 121°04'8241246.8
2017-Mar-25 16:33N 24°26' E 117°53'70548789.0
2017-Mar-25 16:32N 36°00' E 120°13'2427130.9
2017-Mar-25 16:30N 31°59' E 120°26'35911344.8
2017-Mar-25 16:28N 37°57' E 120°58'7243143272.4
2017-Mar-25 16:25N 05°16' W 004°02'71638291.8
2017-Mar-25 15:34N 24°26' E 117°53'47317185.1
2017-Mar-25 15:32N 31°59' E 120°26'3612732.0
2017-Mar-25 15:24N 37°60' E 120°48'1231000.5
2017-Mar-25 15:17N 36°00' E 120°13'122169.7
2017-Mar-25 14:33N 38°01' E 120°40'827110296.4
2017-Mar-25 14:33N 24°26' E 117°53'4732441.0
2017-Mar-25 14:21N 31°59' E 120°26'473580.7
2017-Mar-25 13:32N 24°26' E 117°53'47312509.8
2017-Mar-25 13:30N 31°59' E 120°26'2427445.4
2017-Mar-25 13:28N 36°01' E 120°13'124420.0
2017-Mar-25 13:11N 38°04' E 120°27'123198.5
2017-Mar-25 12:33N 36°01' E 120°20'707423960.8
2017-Mar-25 12:33N 24°26' E 117°53'83388215.8
2017-Mar-25 12:33N 38°09' E 120°27'3701849.2
2017-Mar-25 12:21N 31°59' E 120°26'473599.9
2017-Mar-25 11:34N 24°26' E 117°53'4735155.5
2017-Mar-25 11:28N 31°59' E 120°26'232687.9
2017-Mar-25 11:08N 35°51' E 120°14'6951216.9
2017-Mar-25 10:34N 24°26' E 117°53'47339564.0
2017-Mar-25 10:33N 31°59' E 120°26'473478.3
2017-Mar-25 09:34N 24°26' E 117°53'47320746.7
2017-Mar-25 09:32N 31°59' E 120°26'473482.2
2017-Mar-25 08:33N 24°26' E 117°53'0 0.0
2017-Mar-25 07:34N 24°26' E 117°53'0 0.0
2017-Mar-25 06:33N 24°26' E 117°53'716337922.8
2017-Mar-25 06:22N 05°16' W 004°02'71638834.4
2017-Mar-25 05:34N 24°26' E 117°53'0 0.0
2017-Mar-25 04:33N 24°26' E 117°53'4731327.0
2017-Mar-25 04:12N 31°59' E 120°26'473727.6
2017-Mar-25 03:33N 24°26' E 117°53'716315349.7
2017-Mar-25 03:05N 05°16' W 004°02'716312518.2
2017-Mar-25 02:31N 24°26' E 117°53'71633683927.4
2017-Mar-25 02:31N 05°16' W 004°02'72561536616.0
2017-Mar-25 02:30N 31°59' E 120°26'1 4.2
2017-Mar-25 02:18N 31°58' E 120°25'472642.0
2017-Mar-25 01:34N 24°26' E 117°53'716341392.4
2017-Mar-25 01:23N 05°16' W 004°02'71638601.6
2017-Mar-25 00:33N 24°26' E 117°53'0 0.0
2017-Mar-24 23:33N 24°26' E 117°53'47213375.8
2017-Mar-24 23:31N 31°58' E 120°26'1 8.6
2017-Mar-24 23:25N 31°59' E 120°26'725620765.1
2017-Mar-24 23:04N 05°16' W 004°02'716313775.4
2017-Mar-24 22:33N 24°26' E 117°53'4723945.1
2017-Mar-24 22:26N 31°58' E 120°27'725740190.8
2017-Mar-24 22:15N 05°16' W 004°02'72561135758.7
2017-Mar-24 22:15N 31°59' E 120°26'1 0.8
2017-Mar-24 21:33N 31°58' E 120°27'47270848.2
2017-Mar-24 21:33N 24°26' E 117°53'4737629.0
2017-Mar-24 21:29N 31°59' E 120°26'473509.7
2017-Mar-24 20:34N 24°26' E 117°53'4723108.5
2017-Mar-24 20:24N 31°58' E 120°27'1 4.8
2017-Mar-24 20:18N 31°59' E 120°26'473638.1
2017-Mar-24 19:33N 24°26' E 117°53'47312986.7
2017-Mar-24 19:31N 31°59' E 120°26'725668027.2
2017-Mar-24 19:25N 05°16' W 004°02'725764985.1
2017-Mar-24 19:18N 31°58' E 120°27'472634.2
2017-Mar-24 18:34N 24°26' E 117°53'4738339.4
2017-Mar-24 18:30N 31°59' E 120°26'473500.8
2017-Mar-24 17:34N 24°26' E 117°53'4736832.2
2017-Mar-24 17:29N 31°59' E 120°26'473505.0
2017-Mar-24 16:33N 24°26' E 117°53'4734012.3
2017-Mar-24 16:26N 31°59' E 120°26'473538.5
2017-Mar-24 15:33N 24°26' E 117°53'4738635.8
2017-Mar-24 15:30N 31°59' E 120°26'117.3
2017-Mar-24 15:28N 31°58' E 120°27'472501.0
2017-Mar-24 14:32N 24°26' E 117°53'4735614.7
2017-Mar-24 14:27N 31°59' E 120°26'473501.0
2017-Mar-24 13:30N 24°26' E 117°53'473481.0
2017-Mar-24 12:31N 31°59' E 120°26'4732118.6
2017-Mar-24 12:18N 24°26' E 117°53'0 0.0
2017-Mar-24 11:22N 24°26' E 117°53'0 0.0
2017-Mar-24 10:33N 24°26' E 117°53'0 0.0
2017-Mar-24 09:33N 24°26' E 117°53'0 0.0
2017-Mar-24 08:34N 24°26' E 117°53'45644341.7
2017-Mar-24 08:33N 21°12' E 110°26'456460.3
2017-Mar-24 07:34N 24°26' E 117°53'0 0.0
2017-Mar-24 06:33N 24°26' E 117°53'0 0.0
2017-Mar-24 05:34N 24°26' E 117°53'4731896.5
2017-Mar-24 05:19N 31°59' E 120°26'473629.1
2017-Mar-24 04:33N 24°26' E 117°53'822164415.3
2017-Mar-24 04:33N 37°47' E 121°31'3526666.4
2017-Mar-24 04:30N 31°59' E 120°26'1 1.2
2017-Mar-24 04:04N 31°58' E 120°27'472934.8
2017-Mar-24 03:33N 24°26' E 117°53'4735806.0
2017-Mar-24 03:29N 31°59' E 120°26'473508.3
2017-Mar-24 02:33N 24°26' E 117°53'0 0.0
2017-Mar-24 01:34N 24°26' E 117°53'473130916.1
2017-Mar-24 01:33N 31°59' E 120°27'72571866060.1
2017-Mar-24 01:33N 05°16' W 004°02'7256212376.0
2017-Mar-24 01:31N 31°59' E 120°26'473484.7
2017-Mar-24 00:33N 24°26' E 117°53'1152.0
2017-Mar-24 00:20N 24°25' E 118°05'1113.6
2017-Mar-23 23:32N 24°26' E 117°53'0 0.0
2017-Mar-23 22:31N 24°26' E 117°53'0 0.0
2017-Mar-23 21:34N 24°26' E 117°53'88254744.4
2017-Mar-23 21:33N 38°44' E 121°51'4113656.2
2017-Mar-23 21:26N 31°59' E 120°27'82326.9
2017-Mar-23 21:11N 31°14' E 121°47'158744.0
2017-Mar-23 21:11N 31°15' E 122°04'1930.3
2017-Mar-23 20:33N 31°18' E 121°43'1916933.1
2017-Mar-23 20:33N 31°15' E 122°04'465186181.9
2017-Mar-23 20:33N 24°26' E 117°53'716341861.1
2017-Mar-23 20:23N 05°16' W 004°02'73528932.6
2017-Mar-23 19:34N 31°15' E 122°04'2814576.0
2017-Mar-23 19:33N 31°24' E 121°33'461118533.8
2017-Mar-23 19:33N 24°26' E 117°53'7163661178.4
2017-Mar-23 19:33N 05°17' W 004°02'73127421.7
2017-Mar-23 18:33N 31°30' E 121°24'3868150.8
2017-Mar-23 18:33N 31°15' E 122°04'46552363.7
2017-Mar-23 18:33N 24°26' E 117°53'7162373671.8
2017-Mar-23 18:32N 05°17' W 004°01'7255791445.9
2017-Mar-23 18:31N 31°59' E 120°26'4748.8
2017-Mar-23 17:33N 31°37' E 121°15'73033755794.1
2017-Mar-23 17:33N 05°17' W 004°01'73516615985.6
2017-Mar-23 17:33N 31°15' E 122°04'4651675637.2
2017-Mar-23 17:33N 24°26' E 117°53'4733098.6
2017-Mar-23 17:24N 31°59' E 120°26'473561.1
2017-Mar-23 16:33N 24°26' E 117°53'470112773.7
2017-Mar-23 16:33N 31°44' E 121°06'5768691.1
2017-Mar-23 16:33N 31°15' E 122°04'7351882130.7
2017-Mar-23 16:33N 05°17' W 004°01'7332942728.4
2017-Mar-23 16:32N 31°17' E 121°44'79202.3
2017-Mar-23 16:09N 31°59' E 120°26'94160.0
2017-Mar-23 15:34N 31°15' E 122°04'870782952.8
2017-Mar-23 15:33N 21°12' E 110°26'859773118.4
2017-Mar-23 15:33N 31°10' E 121°53'597116.7
2017-Mar-23 15:33N 31°47' E 120°58'470422957.1
2017-Mar-23 15:33N 24°26' E 117°53'71622148673.0
2017-Mar-23 15:33N 05°17' W 004°01'7255621865.6
2017-Mar-23 15:32N 31°59' E 120°26'122.3
2017-Mar-23 15:30N 31°59' E 120°27'473500.7
2017-Mar-23 14:33N 24°26' E 117°53'455233999.5
2017-Mar-23 14:33N 31°04' E 122°03'1120361.1
2017-Mar-23 14:33N 31°15' E 122°04'0 0.0
2017-Mar-23 13:33N 31°15' E 122°04'0 0.0
2017-Mar-23 12:33N 31°15' E 122°04'94595.5
2017-Mar-23 12:24N 31°59' E 120°27'4732165.2
2017-Mar-23 12:11N 24°26' E 117°53'465743.7
2017-Mar-23 11:33N 31°15' E 122°04'941372.5
2017-Mar-23 11:29N 31°59' E 120°27'94101.0
2017-Mar-23 10:33N 31°15' E 122°04'942446.7
2017-Mar-23 10:31N 31°59' E 120°27'4732470.1
2017-Mar-23 10:20N 24°26' E 117°53'465605.1
2017-Mar-23 09:34N 31°15' E 122°04'46593091.0
2017-Mar-23 09:33N 24°26' E 117°53'716315196.0
2017-Mar-23 09:05N 05°16' W 004°02'716313687.7
2017-Mar-23 08:34N 24°26' E 117°53'4651675618.0
2017-Mar-23 08:34N 31°15' E 122°04'0 0.0
2017-Mar-23 07:34N 31°15' E 122°04'4651675618.0
2017-Mar-23 07:33N 24°26' E 117°53'4731430.6
2017-Mar-23 07:14N 31°59' E 120°26'94141.0
2017-Mar-23 06:33N 31°15' E 122°04'9416185.7
2017-Mar-23 06:33N 31°59' E 120°26'47389528.5
2017-Mar-23 06:33N 24°26' E 117°53'71631841975.8
2017-Mar-23 06:33N 05°16' W 004°02'73527466.5
2017-Mar-23 05:34N 31°15' E 122°04'942763.1
2017-Mar-23 05:31N 31°59' E 120°26'0 0.0
2017-Mar-23 04:33N 31°59' E 120°26'9422657.4
2017-Mar-23 04:33N 31°15' E 122°04'46523600.3
2017-Mar-23 04:31N 24°26' E 117°53'465480.3
2017-Mar-23 03:33N 31°15' E 122°04'4654528.7
2017-Mar-23 03:27N 24°26' E 117°53'465520.4
2017-Mar-23 02:34N 31°15' E 122°04'0 0.0
2017-Mar-23 01:33N 31°15' E 122°04'944785.4
2017-Mar-23 01:32N 31°59' E 120°26'9495.2
2017-Mar-23 00:33N 31°15' E 122°04'0 0.0
2017-Mar-22 23:33N 31°15' E 122°04'31159.4
2017-Mar-22 23:22N 31°12' E 121°29'3138.1
2017-Mar-22 22:33N 31°15' E 122°04'3015436.4
2017-Mar-22 22:33N 31°14' E 121°29'34119.7
2017-Mar-22 22:16N 31°03' E 122°07'1216.9
2017-Mar-22 21:34N 31°15' E 122°04'11652.9
2017-Mar-22 21:33N 31°05' E 122°02'1110.6
2017-Mar-22 20:33N 31°15' E 122°04'0 0.0
2017-Mar-22 19:33N 31°15' E 122°04'7352330855.9
2017-Mar-22 19:32N 05°16' W 004°02'73527521.6
2017-Mar-22 18:34N 31°15' E 122°04'7352194621.1
2017-Mar-22 18:31N 05°16' W 004°02'73527619.0
2017-Mar-22 17:33N 31°15' E 122°04'735236707.0
2017-Mar-22 17:21N 05°17' W 004°01'73529192.7
2017-Mar-22 16:33N 31°15' E 122°04'735138974.7
2017-Mar-22 16:22N 05°17' W 004°01'728328908.1
2017-Mar-22 16:07N 31°46' E 120°55'67119.2
2017-Mar-22 15:33N 31°15' E 122°04'67964.5
2017-Mar-22 15:29N 31°46' E 120°55'72837831.4
2017-Mar-22 14:33N 05°17' W 004°01'735113231958.7
2017-Mar-22 14:33N 31°15' E 122°04'67209.1
2017-Mar-22 14:14N 31°46' E 120°55'6798.0
2017-Mar-22 13:33N 31°15' E 122°04'67972.8
2017-Mar-22 13:29N 31°46' E 120°55'6771.6
2017-Mar-22 12:33N 31°15' E 122°04'0 0.0
2017-Mar-22 11:34N 31°15' E 122°04'94708.7
2017-Mar-22 11:26N 31°59' E 120°27'94107.5
2017-Mar-22 10:33N 31°15' E 122°04'2928.3
2017-Mar-22 09:31N 31°24' E 121°32'29105755.5
2017-Mar-22 09:31N 31°15' E 122°04'2425.4
2017-Mar-22 08:33N 31°22' E 121°37'634.3
2017-Mar-22 08:22N 31°23' E 121°30'3037.3
2017-Mar-22 07:33N 31°15' E 122°04'198748.3
2017-Mar-22 07:33N 31°20' E 121°42'122234.1
2017-Mar-22 07:33N 31°25' E 121°30'731926805.2
2017-Mar-22 07:17N 05°16' W 004°02'735210176.3
2017-Mar-22 06:33N 31°15' E 122°04'167121.4
2017-Mar-22 06:33N 31°16' E 121°46'22265.9
2017-Mar-22 06:28N 31°29' E 121°25'43264.3
2017-Mar-22 06:19N 31°02' E 122°05'7354101435.3
2017-Mar-22 06:14N 05°16' W 004°02'733810761.0
2017-Mar-22 05:33N 31°13' E 121°49'1347879.6
2017-Mar-22 05:33N 31°15' E 122°04'7352259495.2
2017-Mar-22 05:32N 05°16' W 004°02'7361646296.4
2017-Mar-22 05:31N 30°59' E 122°11'8012563.6
2017-Mar-22 05:31N 31°46' E 120°55'6063.3
2017-Mar-22 04:34N 31°10' E 121°52'1220792.0
2017-Mar-22 04:33N 31°15' E 122°04'673331.8
2017-Mar-22 04:32N 31°46' E 120°55'7285188665.0
2017-Mar-22 04:30N 05°16' W 004°02'73527787.2
2017-Mar-22 03:33N 31°15' E 122°04'102003.2
2017-Mar-22 03:33N 31°08' E 121°56'7345644956.5
2017-Mar-22 03:32N 05°16' W 004°02'73497427.9
2017-Mar-22 02:33N 31°06' E 122°00'10596.0
2017-Mar-22 02:32N 31°15' E 122°04'735249198.2
2017-Mar-22 02:23N 05°16' W 004°02'73528799.4
2017-Mar-22 01:33N 31°15' E 122°04'123951.2
2017-Mar-22 01:33N 31°03' E 122°04'7354133032.1
2017-Mar-22 01:29N 05°16' W 004°02'7302252775.7
2017-Mar-22 01:28N 31°09' E 121°10'4752.2
2017-Mar-22 00:33N 31°15' E 122°04'4710621.4
2017-Mar-22 00:33N 31°12' E 121°09'4747.3
2017-Mar-21 23:33N 31°15' E 122°04'735220113.0
2017-Mar-21 23:11N 05°16' W 004°02'735211680.8
2017-Mar-21 22:34N 31°15' E 122°04'0 0.0
2017-Mar-21 21:34N 31°15' E 122°04'608091574.4
2017-Mar-21 21:30N 33°37' W 117°55'611922074.1
2017-Mar-21 21:13N 31°46' E 120°55'67101.2
2017-Mar-21 20:33N 31°15' E 122°04'678272.4
2017-Mar-21 20:33N 31°46' E 120°55'6767.2
2017-Mar-21 19:33N 31°15' E 122°04'735217716.6
2017-Mar-21 19:08N 05°16' W 004°02'735212634.2
2017-Mar-21 18:34N 31°15' E 122°04'7352945304.2
2017-Mar-21 18:33N 05°16' W 004°02'73527407.9
2017-Mar-21 17:34N 31°15' E 122°04'7352912705.8
2017-Mar-21 17:33N 05°16' W 004°02'73527412.1
2017-Mar-21 16:34N 31°15' E 122°04'735227485.4
2017-Mar-21 16:17N 05°16' W 004°02'735210037.3
2017-Mar-21 15:34N 31°15' E 122°04'735249289.6
2017-Mar-21 15:25N 05°16' W 004°02'73528618.9
2017-Mar-21 14:33N 31°15' E 122°04'73522205706.5
2017-Mar-21 14:33N 05°16' W 004°02'730951393.8
2017-Mar-21 14:25N 31°32' E 121°20'74265290.5
2017-Mar-21 14:25N 30°20' E 121°36'6069.8
2017-Mar-21 13:33N 31°15' E 122°04'7352107595.5
2017-Mar-21 13:29N 05°16' W 004°02'73527977.2
2017-Mar-21 12:33N 31°15' E 122°04'95376.8
2017-Mar-21 12:18N 31°58' E 120°26'28140.1
2017-Mar-21 12:06N 31°46' E 120°55'67118.1
2017-Mar-21 11:32N 31°15' E 122°04'735221749.0
2017-Mar-21 11:12N 05°16' W 004°02'735211453.3
2017-Mar-21 10:34N 31°15' E 122°04'735250224.8
2017-Mar-21 10:25N 05°16' W 004°02'7256187913.8
2017-Mar-21 10:22N 31°58' E 120°26'95114.7
2017-Mar-21 09:33N 31°15' E 122°04'735254461.9
2017-Mar-21 09:25N 05°16' W 004°02'0 0.0
2017-Mar-21 08:33N 05°16' W 004°02'73525293711.4
2017-Mar-21 08:33N 31°15' E 122°04'4211293.5
2017-Mar-21 08:14N 38°06' E 120°13'720210690.9
2017-Mar-21 07:33N 05°16' W 004°02'73521323432.0
2017-Mar-21 07:33N 31°15' E 122°04'4182072.1
2017-Mar-21 07:21N 38°05' E 120°22'418527.6
2017-Mar-21 06:33N 31°15' E 122°04'41628240.8
2017-Mar-21 06:32N 38°04' E 120°31'721892805.5
2017-Mar-21 06:28N 05°16' W 004°02'72277973.4
2017-Mar-21 05:33N 38°02' E 120°41'41374287.9
2017-Mar-21 05:33N 31°15' E 122°04'410412.7
2017-Mar-21 04:33N 38°00' E 120°49'410738090.6
2017-Mar-21 04:33N 31°15' E 122°04'598156.4
2017-Mar-21 04:33N 31°06' E 120°56'58734.7
2017-Mar-21 04:28N 31°58' E 120°26'361395.5
2017-Mar-21 03:33N 37°59' E 120°58'40856425.4
2017-Mar-21 03:33N 31°15' E 122°04'0 0.0
2017-Mar-21 02:33N 31°15' E 122°04'95206.5
2017-Mar-21 02:06N 31°58' E 120°26'95175.8
2017-Mar-21 01:33N 31°15' E 122°04'95243.4
2017-Mar-21 01:10N 31°58' E 120°26'95154.4
2017-Mar-21 00:33N 31°15' E 122°04'3911407280.8
2017-Mar-21 00:33N 37°44' E 121°17'726224733.0
2017-Mar-21 00:16N 05°16' W 004°02'735210453.6
2017-Mar-20 23:34N 31°15' E 122°04'385173429.3
2017-Mar-20 23:33N 37°39' E 121°24'385386.0
2017-Mar-20 22:33N 31°15' E 122°04'38222920.0
2017-Mar-20 22:32N 37°36' E 121°25'3414128.9
2017-Mar-20 22:28N 31°58' E 120°26'95105.3
2017-Mar-20 21:34N 31°15' E 122°04'38236192.4
2017-Mar-20 21:33N 37°36' E 121°25'3412462.5
2017-Mar-20 21:25N 31°58' E 120°26'725649752.4
2017-Mar-20 21:16N 05°16' W 004°02'7321159720.1
2017-Mar-20 21:13N 31°03' E 121°28'393594.5
2017-Mar-20 20:33N 37°36' E 121°25'38247425.2
2017-Mar-20 20:33N 31°15' E 122°04'735251595.5
2017-Mar-20 20:24N 05°16' W 004°02'7284323755.3
2017-Mar-20 20:23N 31°46' E 120°55'350423.0
2017-Mar-20 19:33N 37°36' E 121°25'382458444.0
2017-Mar-20 19:33N 31°15' E 122°04'7352348269.4
2017-Mar-20 19:32N 05°16' W 004°02'7319289539.0
2017-Mar-20 19:31N 31°11' E 121°28'71734.9
2017-Mar-20 19:25N 31°58' E 120°26'341396.6
2017-Mar-20 18:33N 37°36' E 121°25'382343833.0
2017-Mar-20 18:33N 31°15' E 122°04'304911.2
2017-Mar-20 18:33N 31°14' E 121°29'705847.7
2017-Mar-20 18:32N 31°58' E 120°26'9597.1
2017-Mar-20 17:34N 31°15' E 122°04'382687666.0
2017-Mar-20 17:33N 37°36' E 121°25'39317250.7
2017-Mar-20 17:32N 31°04' E 122°04'7354180087.3
2017-Mar-20 17:30N 05°16' W 004°02'7256172980.5
2017-Mar-20 17:27N 31°58' E 120°26'95105.6
2017-Mar-20 16:33N 31°15' E 122°04'38265491.0
2017-Mar-20 16:33N 37°36' E 121°25'3411390.4
2017-Mar-20 16:18N 31°58' E 120°26'725650424.8
2017-Mar-20 16:10N 05°16' W 004°02'735212208.7
2017-Mar-20 15:34N 31°15' E 122°04'7352756243.7
2017-Mar-20 15:33N 05°16' W 004°02'72703738739.9
2017-Mar-20 15:33N 37°36' E 121°25'3412677.7
2017-Mar-20 15:25N 31°58' E 120°26'65770.5
2017-Mar-20 15:20N 31°22' E 121°30'3039.2
2017-Mar-20 14:34N 31°15' E 122°04'382687666.0
2017-Mar-20 14:33N 37°36' E 121°25'3414753.5
2017-Mar-20 14:29N 31°58' E 120°26'64722.8
2017-Mar-20 14:24N 31°25' E 121°30'3136.9
2017-Mar-20 13:33N 31°15' E 122°04'382137533.2
2017-Mar-20 13:33N 37°36' E 121°25'367220298.8
2017-Mar-20 13:33N 31°28' E 121°26'6060.1
2017-Mar-20 12:33N 31°58' E 120°25'95342590.9
2017-Mar-20 12:33N 31°15' E 122°04'4111304.1
2017-Mar-20 12:33N 31°31' E 121°21'364187286.9
2017-Mar-20 12:33N 37°36' E 121°25'386987.2
2017-Mar-20 12:10N 31°10' E 121°07'5082.3
2017-Mar-20 11:34N 31°15' E 122°04'95341925.3
2017-Mar-20 11:33N 31°58' E 120°25'54192704.3
2017-Mar-20 11:33N 31°32' E 121°20'243016.6
2017-Mar-20 11:33N 31°10' E 121°07'38639657.4
2017-Mar-20 11:32N 37°36' E 121°25'341347.3
2017-Mar-20 10:33N 31°58' E 120°25'59213945.4
2017-Mar-20 10:33N 31°10' E 121°07'5025551.8
2017-Mar-20 10:33N 31°15' E 122°04'38225006.0
2017-Mar-20 10:32N 37°36' E 121°25'3644942.2
2017-Mar-20 10:28N 31°32' E 121°20'5358.8
2017-Mar-20 09:33N 31°58' E 120°25'9537991.7
2017-Mar-20 09:33N 31°15' E 122°04'5059621.4
2017-Mar-20 09:33N 31°10' E 121°07'5926753.3
2017-Mar-20 09:33N 31°58' E 120°26'3411226341.4
2017-Mar-20 09:33N 37°36' E 121°25'382384.5
2017-Mar-20 08:34N 31°15' E 122°04'95170967.5
2017-Mar-20 08:33N 31°58' E 120°25'341204642.4
2017-Mar-20 08:33N 37°36' E 121°25'38663092.3
2017-Mar-20 08:33N 31°10' E 121°07'593243.1
2017-Mar-20 08:32N 31°58' E 120°26'1 0.6
2017-Mar-20 07:33N 31°58' E 120°25'34176740.9
2017-Mar-20 07:33N 37°36' E 121°25'386462946.4
2017-Mar-20 07:33N 31°10' E 121°07'4919658.7
2017-Mar-20 07:33N 31°15' E 122°04'952890.3
2017-Mar-20 07:31N 31°58' E 120°26'341354.9
2017-Mar-20 06:33N 37°36' E 121°25'341153481.8
2017-Mar-20 06:33N 31°58' E 120°25'9511397.8
2017-Mar-20 06:33N 31°15' E 122°04'47170105.4
2017-Mar-20 06:33N 31°10' E 121°09'6117023.9
2017-Mar-20 06:33N 31°58' E 120°26'9596.2
2017-Mar-20 05:33N 31°15' E 122°04'9511397.8
2017-Mar-20 05:33N 31°58' E 120°25'3411227854.2
2017-Mar-20 05:33N 37°36' E 121°25'34135037.7
2017-Mar-20 05:32N 31°58' E 120°26'725649190.6
2017-Mar-20 05:24N 05°16' W 004°02'73528814.1
2017-Mar-20 04:33N 31°15' E 122°04'9534310.2
2017-Mar-20 04:33N 32°02' E 120°27'33739147.3
2017-Mar-20 04:33N 37°36' E 121°25'3414379.7
2017-Mar-20 04:28N 31°58' E 120°26'7 7.7
2017-Mar-20 03:33N 32°01' E 120°33'3371214314.3
2017-Mar-20 03:33N 37°36' E 121°25'396356509.4
2017-Mar-20 03:33N 31°01' E 122°07'1414.1
2017-Mar-20 02:33N 31°15' E 122°04'117669.4
2017-Mar-20 02:33N 31°05' E 121°59'391234698.9
2017-Mar-20 02:33N 37°36' E 121°25'3412013.5
2017-Mar-20 02:23N 31°58' E 120°26'95114.5
2017-Mar-20 01:33N 31°15' E 122°04'139423.6
2017-Mar-20 01:33N 31°11' E 121°50'38386237.7
2017-Mar-20 01:33N 37°34' E 121°25'339781.7
2017-Mar-20 01:07N 31°58' E 120°25'95169.1
2017-Mar-20 00:33N 31°15' E 122°04'1934390.4
2017-Mar-20 00:33N 31°19' E 121°42'37658824.1
2017-Mar-20 00:33N 37°34' E 121°25'3393139.1
2017-Mar-20 00:27N 31°58' E 120°25'95107.1
2017-Mar-19 23:33N 31°15' E 122°04'272856.3
2017-Mar-19 23:33N 31°23' E 121°34'3711335391.9
2017-Mar-19 23:33N 37°34' E 121°25'3396636.6
2017-Mar-19 23:30N 31°58' E 120°25'103245.2
2017-Mar-19 23:05N 31°02' E 122°06'4 8.5
2017-Mar-19 22:33N 30°59' E 122°11'166564.1
2017-Mar-19 22:33N 31°15' E 122°04'95330.9
2017-Mar-19 22:16N 31°58' E 120°25'95133.4
2017-Mar-19 21:34N 31°15' E 122°04'381195690.6
2017-Mar-19 21:33N 37°34' E 121°25'33911306.6
2017-Mar-19 21:32N 31°58' E 120°26'9597.9
2017-Mar-19 20:34N 31°15' E 122°04'38080575.9
2017-Mar-19 20:33N 37°34' E 121°25'3393601.8
2017-Mar-19 20:28N 31°58' E 120°26'7256101240.5
2017-Mar-19 20:23N 05°16' W 004°02'72708759.2
2017-Mar-19 19:33N 37°34' E 121°25'33981395.5
2017-Mar-19 19:33N 31°58' E 120°26'9585266.2
2017-Mar-19 19:33N 31°15' E 122°04'608099937.4
2017-Mar-19 19:30N 33°37' W 117°55'666418860.2
2017-Mar-19 19:08N 05°16' W 004°02'727012481.3
2017-Mar-19 18:33N 37°37' E 121°26'383459786.9
2017-Mar-19 18:33N 31°15' E 122°04'956821.3
2017-Mar-19 18:32N 31°58' E 120°26'9596.4
2017-Mar-19 17:33N 31°15' E 122°04'38935884.5
2017-Mar-19 17:33N 37°42' E 121°16'34616816.2
2017-Mar-19 17:32N 31°58' E 120°26'725624900.1
2017-Mar-19 17:14N 05°16' W 004°02'735210856.7
2017-Mar-19 16:33N 31°15' E 122°04'7351129722.9
2017-Mar-19 16:30N 05°17' W 004°01'7254725415.9
2017-Mar-19 16:29N 31°58' E 120°26'653054.6
2017-Mar-19 16:28N 31°23' E 121°30'610478475.5
2017-Mar-19 16:24N 33°37' W 117°55'60807235.1
2017-Mar-19 15:33N 31°15' E 122°04'7351315041.6
2017-Mar-19 15:32N 05°17' W 004°01'725425527.9
2017-Mar-19 15:15N 31°58' E 120°26'601232.6
2017-Mar-19 15:12N 31°28' E 121°27'3554.5
2017-Mar-19 14:33N 31°15' E 122°04'3845919.6
2017-Mar-19 14:33N 31°30' E 121°23'  
Track history (hours):
 
Tides and Currents Weather Stations Pressure Air Temp Water Temp Dewpoint Dewpoint Depression Visibility Wind Speed Wind Dir Waves Ship Positions

Graceful Lady

Last reported at 2017-Mar-29 14:33 UTC. Time now 2017-Mar-29 15:19 UTC.
Position N 37°42' E 121°24'.

Length 6 m.

Type: Pollution control. MMSI: 316014038.

Date/timePositionNaut miles runAvg speedWind from/ knotsBaromVisibWave heightAir tempDewpointWater temp
2017-Mar-29 14:33N 37°42' E 121°24'81681619.0
2017-Mar-29 14:33N 24°26' E 117°53'811816.6
2017-Mar-29 13:33N 37°36' E 121°27'8118220.8
2017-Mar-29 13:27N 24°26' E 117°53'0 0.0
2017-Mar-29 12:31N 24°26' E 117°53'809416212.7
2017-Mar-29 12:31N 37°35' E 121°23'809824.4
2017-Mar-29 11:32N 24°26' E 117°53'80944822.9
2017-Mar-29 11:31N 37°35' E 121°23'809843.0
2017-Mar-29 10:33N 24°26' E 117°53'8099048.0
2017-Mar-29 10:28N 37°35' E 121°23'809886.1
2017-Mar-29 09:33N 24°26' E 117°53'8099338.0
2017-Mar-29 09:28N 37°35' E 121°23'809897.0
2017-Mar-29 08:34N 24°26' E 117°53'8098253.4
2017-Mar-29 08:28N 37°35' E 121°23'809886.4
2017-Mar-29 07:33N 24°26' E 117°53'80921581.2
2017-Mar-29 07:31N 37°35' E 121°23'809845.7
2017-Mar-29 06:33N 24°26' E 117°53'80919167.7
2017-Mar-29 06:31N 37°35' E 121°23'809849.9
2017-Mar-29 05:34N 24°26' E 117°53'8098276.9
2017-Mar-29 05:28N 37°35' E 121°23'589373924.3
2017-Mar-29 05:23N 33°37' W 117°55'65407948.5
2017-Mar-29 04:33N 24°26' E 117°53'8098300.1
2017-Mar-29 04:28N 37°35' E 121°23'589342688.9
2017-Mar-29 04:19N 33°37' W 117°55'58947679.2
2017-Mar-29 03:33N 37°34' E 121°24'808363763.5
2017-Mar-29 03:33N 24°26' E 117°53'0 0.0
2017-Mar-29 02:33N 24°26' E 117°53'456126202.6
2017-Mar-29 02:33N 21°12' E 110°26'1137314930.2
2017-Mar-29 02:33N 37°34' E 121°23'808814.2
2017-Mar-29 01:33N 24°26' E 117°53'808111927.4
2017-Mar-29 01:33N 37°34' E 121°23'808814.5
2017-Mar-29 00:34N 24°26' E 117°53'808111927.4
2017-Mar-29 00:33N 37°34' E 121°23'589446127.7
2017-Mar-29 00:25N 33°37' W 117°55'58946753.3
2017-Mar-28 23:33N 37°34' E 121°23'808132277.9
2017-Mar-28 23:33N 24°26' E 117°53'0 0.0
2017-Mar-28 22:33N 24°26' E 117°53'808323345.9
2017-Mar-28 22:33N 37°34' E 121°23'808814.2
2017-Mar-28 21:33N 24°26' E 117°53'808111927.4
2017-Mar-28 21:33N 37°34' E 121°23'808814.0
2017-Mar-28 20:33N 24°26' E 117°53'808121254.7
2017-Mar-28 20:33N 37°34' E 121°23'33619843.1
2017-Mar-28 20:32N 32°00' E 120°35'6 6.4
2017-Mar-28 19:33N 32°02' E 120°28'476571213.0
2017-Mar-28 19:33N 24°26' E 117°53'80814772.1
2017-Mar-28 19:30N 37°34' E 121°23'808857.2
2017-Mar-28 18:33N 24°26' E 117°53'808107782.0
2017-Mar-28 18:33N 37°34' E 121°23'0 0.0
2017-Mar-28 17:33N 37°34' E 121°23'808223854.8
2017-Mar-28 17:33N 24°26' E 117°53'692311370.6
2017-Mar-28 17:33N 35°48' E 120°09'692701.5
2017-Mar-28 16:34N 24°26' E 117°53'699359583.2
2017-Mar-28 16:33N 35°54' E 120°18'1132024.8
2017-Mar-28 16:30N 37°34' E 121°23'808855.9
2017-Mar-28 15:33N 24°26' E 117°53'808145505.6
2017-Mar-28 15:33N 37°34' E 121°23'1069337.0
2017-Mar-28 15:32N 36°01' E 120°19'706719.9
2017-Mar-28 14:33N 24°26' E 117°53'808103932.6
2017-Mar-28 14:33N 37°34' E 121°23'110659.9
2017-Mar-28 14:23N 35°60' E 120°12'704850.6
2017-Mar-28 13:33N 24°26' E 117°53'808161671.8
2017-Mar-28 13:33N 37°34' E 121°23'1103566.8
2017-Mar-28 13:31N 35°60' E 120°12'0 0.0
2017-Mar-28 12:34N 35°60' E 120°12'704230448.5
2017-Mar-28 12:33N 24°26' E 117°53'808121250.3
2017-Mar-28 12:33N 37°34' E 121°23'6 5.8
2017-Mar-28 11:33N 37°37' E 121°29'812974784.7
2017-Mar-28 11:33N 24°26' E 117°53'704281657.0
2017-Mar-28 11:33N 35°60' E 120°12'704705.9
2017-Mar-28 10:33N 24°26' E 117°53'81639145.2
2017-Mar-28 10:32N 37°40' E 121°31'1181875.0
2017-Mar-28 10:28N 35°60' E 120°12'704768.6
2017-Mar-28 09:33N 24°26' E 117°53'81611424.2
2017-Mar-28 09:29N 37°40' E 121°31'1181360.3
2017-Mar-28 09:24N 35°60' E 120°12'704833.3
2017-Mar-28 08:33N 24°26' E 117°53'81646605.1
2017-Mar-28 08:32N 37°40' E 121°31'816834.8
2017-Mar-28 07:34N 24°26' E 117°53'45630382.3
2017-Mar-28 07:33N 21°12' E 110°26'10276233.1
2017-Mar-28 07:23N 35°60' E 120°12'0 0.0
2017-Mar-28 06:33N 35°60' E 120°12'70435703.3
2017-Mar-28 06:32N 24°26' E 117°53'0 0.0
2017-Mar-28 05:33N 24°26' E 117°53'7045100.5
2017-Mar-28 05:25N 35°60' E 120°12'704811.7
2017-Mar-28 04:33N 24°26' E 117°53'70652981.7
2017-Mar-28 04:32N 36°02' E 120°15'7 7.0
2017-Mar-28 03:33N 35°57' E 120°21'703210806.5
2017-Mar-28 03:33N 24°26' E 117°53'0 0.0
2017-Mar-28 02:33N 24°26' E 117°53'695139010.1
2017-Mar-28 02:33N 35°50' E 120°13'695702.3
2017-Mar-28 01:33N 24°26' E 117°53'0 0.0
2017-Mar-28 00:34N 24°26' E 117°53'0 0.0
2017-Mar-27 23:34N 24°26' E 117°53'0 0.0
2017-Mar-27 22:34N 24°26' E 117°53'0 0.0
2017-Mar-27 21:33N 24°26' E 117°53'0 0.0
2017-Mar-27 20:34N 24°26' E 117°53'0 0.0
2017-Mar-27 19:34N 24°26' E 117°53'0 0.0
2017-Mar-27 18:33N 24°26' E 117°53'1079642430.9
2017-Mar-27 18:18N 27°52' W 082°33'1079614486.3
2017-Mar-27 17:34N 24°26' E 117°53'0 0.0
2017-Mar-27 16:33N 24°26' E 117°53'0 0.0
2017-Mar-27 15:33N 24°26' E 117°53'0 0.0
2017-Mar-27 14:33N 24°26' E 117°53'0 0.0
2017-Mar-27 13:34N 24°26' E 117°53'0 0.0
2017-Mar-27 12:34N 24°26' E 117°53'0 0.0
2017-Mar-27 11:34N 24°26' E 117°53'6902445.1
2017-Mar-27 11:17N 35°46' E 120°07'7 9.1
2017-Mar-27 10:34N 35°51' E 120°13'695695.2
2017-Mar-27 09:34N 24°26' E 117°53'704422115.5
2017-Mar-27 09:33N 35°58' E 120°21'704704.7
2017-Mar-27 08:34N 24°26' E 117°53'70519230.3
2017-Mar-27 08:31N 36°01' E 120°14'111770.1
2017-Mar-27 08:23N 37°36' E 121°25'810985.3
2017-Mar-27 07:33N 24°26' E 117°53'0 0.0
2017-Mar-27 06:33N 24°26' E 117°53'0 0.0
2017-Mar-27 05:33N 24°26' E 117°53'7053266.3
2017-Mar-27 05:20N 36°00' E 120°13'705862.1
2017-Mar-27 04:30N 24°26' E 117°53'0 0.0
2017-Mar-27 03:33N 24°26' E 117°53'70511083.0
2017-Mar-27 03:29N 36°01' E 120°13'705744.3
2017-Mar-27 02:33N 24°26' E 117°53'7041980.7
2017-Mar-27 02:11N 35°60' E 120°13'7041120.8
2017-Mar-27 01:33N 24°26' E 117°53'70414323.7
2017-Mar-27 01:31N 35°60' E 120°13'704738.9
2017-Mar-27 00:33N 24°26' E 117°53'81023906.7
2017-Mar-27 00:31N 37°36' E 121°25'1122565.2
2017-Mar-27 00:29N 35°60' E 120°13'704766.0
2017-Mar-26 23:34N 24°26' E 117°53'70612160.0
2017-Mar-26 23:30N 36°01' E 120°14'1101195.4
2017-Mar-26 23:25N 37°36' E 121°25'1031038542.0
2017-Mar-26 23:08N 27°53' W 082°32'1034217746.7
2017-Mar-26 22:34N 35°59' E 120°21'7041268091.2
2017-Mar-26 22:33N 24°26' E 117°53'0 0.0
2017-Mar-26 21:33N 24°26' E 117°53'697358482.9
2017-Mar-26 21:33N 35°52' E 120°15'118313.9
2017-Mar-26 21:11N 37°36' E 121°25'8101299.7
2017-Mar-26 20:34N 24°26' E 117°53'0 0.0
2017-Mar-26 19:33N 24°26' E 117°53'0 0.0
2017-Mar-26 18:34N 24°26' E 117°53'8105134.9
2017-Mar-26 18:24N 37°36' E 121°25'810961.3
2017-Mar-26 17:33N 24°26' E 117°53'0 0.0
2017-Mar-26 16:34N 24°26' E 117°53'0 0.0
2017-Mar-26 15:33N 24°26' E 117°53'716468770.4
2017-Mar-26 15:27N 05°18' W 004°03'71647996.6
2017-Mar-26 14:33N 24°26' E 117°53'81016666.5
2017-Mar-26 14:30N 37°36' E 121°25'7270415415.4
2017-Mar-26 14:29N 05°16' W 004°02'71637496.4
2017-Mar-26 13:32N 24°26' E 117°53'0 0.0
2017-Mar-26 12:34N 24°26' E 117°53'810291662.1
2017-Mar-26 12:33N 37°36' E 121°25'810812.4
2017-Mar-26 11:34N 24°26' E 117°53'8107028.0
2017-Mar-26 11:27N 37°36' E 121°25'810910.0
2017-Mar-26 10:33N 24°26' E 117°53'81058332.4
2017-Mar-26 10:32N 37°36' E 121°25'810812.2
2017-Mar-26 09:33N 24°26' E 117°53'81072915.0
2017-Mar-26 09:32N 37°36' E 121°25'810833.1
2017-Mar-26 08:33N 24°26' E 117°53'810162033.3
2017-Mar-26 08:33N 37°36' E 121°25'727053410.6
2017-Mar-26 08:25N 05°16' W 004°02'72708456.0
2017-Mar-26 07:33N 37°36' E 121°25'1139341786.2
2017-Mar-26 07:33N 21°12' E 110°26'45668360.1
2017-Mar-26 07:33N 24°26' E 117°53'7163599709.8
2017-Mar-26 07:32N 05°16' W 004°02'0 0.0
2017-Mar-26 06:33N 05°16' W 004°02'72704361871.0
2017-Mar-26 06:33N 37°36' E 121°25'810416657.1
2017-Mar-26 06:33N 24°26' E 117°53'6921808.0
2017-Mar-26 06:10N 35°48' E 120°09'123202.1
2017-Mar-26 05:34N 37°36' E 121°25'8102916599.5
2017-Mar-26 05:34N 24°26' E 117°53'69796533.9
2017-Mar-26 05:33N 35°52' E 120°15'234765.0
2017-Mar-26 05:15N 31°58' E 120°26'472687.2
2017-Mar-26 04:34N 24°26' E 117°53'810100573.1
2017-Mar-26 04:33N 37°36' E 121°25'34022694.5
2017-Mar-26 04:32N 31°59' E 120°26'242144908.5
2017-Mar-26 04:32N 36°00' E 120°20'722318639.4
2017-Mar-26 04:09N 05°16' W 004°02'727012144.4
2017-Mar-26 03:33N 37°36' E 121°25'810132573.7
2017-Mar-26 03:32N 24°26' E 117°53'47268011.7
2017-Mar-26 03:32N 31°59' E 120°26'340348.8
2017-Mar-26 02:34N 37°36' E 121°25'8102916516.1
2017-Mar-26 02:34N 24°26' E 117°53'70421852.5
2017-Mar-26 02:32N 35°60' E 120°12'704727.6
2017-Mar-26 01:34N 24°26' E 117°53'810324059.7
2017-Mar-26 01:33N 37°36' E 121°25'0 0.0
2017-Mar-26 00:33N 37°36' E 121°25'8102916558.2
2017-Mar-26 00:33N 24°26' E 117°53'4742316.5
2017-Mar-26 00:21N 32°01' E 120°23'474593.7
2017-Mar-25 23:33N 24°26' E 117°53'81031027.2
2017-Mar-25 23:31N 37°36' E 121°25'1124478.9
2017-Mar-25 23:30N 35°60' E 120°12'704748.2
2017-Mar-25 22:34N 24°26' E 117°53'47313610.8
2017-Mar-25 22:31N 31°59' E 120°26'2413949.2
2017-Mar-25 22:28N 35°60' E 120°13'112340.5
2017-Mar-25 22:08N 37°36' E 121°25'8101406.9
2017-Mar-25 21:34N 24°26' E 117°53'81085781.1
2017-Mar-25 21:33N 37°36' E 121°25'34024987.8
2017-Mar-25 21:32N 31°59' E 120°26'242907.9
2017-Mar-25 21:16N 36°00' E 120°13'705992.2
2017-Mar-25 20:34N 24°26' E 117°53'8092913913.9
2017-Mar-25 20:33N 37°35' E 121°25'3394627.4
2017-Mar-25 20:29N 31°59' E 120°26'473510.0
2017-Mar-25 19:33N 24°26' E 117°53'814732377.0
2017-Mar-25 19:33N 37°40' E 121°22'113913.5
2017-Mar-25 19:26N 36°00' E 120°13'2422931.8
2017-Mar-25 19:21N 31°59' E 120°26'473596.7
2017-Mar-25 18:34N 24°26' E 117°53'47324655.7
2017-Mar-25 18:32N 31°59' E 120°26'3494121.2
2017-Mar-25 18:27N 37°46' E 121°13'7258146798.0
2017-Mar-25 18:24N 05°16' W 004°02'71638460.5
2017-Mar-25 17:34N 24°26' E 117°53'7163101127.5
2017-Mar-25 17:29N 05°16' W 004°02'7216214705.7
2017-Mar-25 17:27N 36°01' E 120°13'2422011.8
2017-Mar-25 17:20N 31°59' E 120°26'3562958.1
2017-Mar-25 17:13N 37°53' E 121°04'8241246.8
2017-Mar-25 16:33N 24°26' E 117°53'70548789.0
2017-Mar-25 16:32N 36°00' E 120°13'2427130.9
2017-Mar-25 16:30N 31°59' E 120°26'35911344.8
2017-Mar-25 16:28N 37°57' E 120°58'7243143272.4
2017-Mar-25 16:25N 05°16' W 004°02'71638291.8
2017-Mar-25 15:34N 24°26' E 117°53'47317185.1
2017-Mar-25 15:32N 31°59' E 120°26'3612732.0
2017-Mar-25 15:24N 37°60' E 120°48'1231000.5
2017-Mar-25 15:17N 36°00' E 120°13'122169.7
2017-Mar-25 14:33N 38°01' E 120°40'827110296.4
2017-Mar-25 14:33N 24°26' E 117°53'4732441.0
2017-Mar-25 14:21N 31°59' E 120°26'473580.7
2017-Mar-25 13:32N 24°26' E 117°53'47312509.8
2017-Mar-25 13:30N 31°59' E 120°26'2427445.4
2017-Mar-25 13:28N 36°01' E 120°13'124420.0
2017-Mar-25 13:11N 38°04' E 120°27'123198.5
2017-Mar-25 12:33N 36°01' E 120°20'707423960.8
2017-Mar-25 12:33N 24°26' E 117°53'83388215.8
2017-Mar-25 12:33N 38°09' E 120°27'3701849.2
2017-Mar-25 12:21N 31°59' E 120°26'473599.9
2017-Mar-25 11:34N 24°26' E 117°53'4735155.5
2017-Mar-25 11:28N 31°59' E 120°26'232687.9
2017-Mar-25 11:08N 35°51' E 120°14'6951216.9
2017-Mar-25 10:34N 24°26' E 117°53'47339564.0
2017-Mar-25 10:33N 31°59' E 120°26'473478.3
2017-Mar-25 09:34N 24°26' E 117°53'47320746.7
2017-Mar-25 09:32N 31°59' E 120°26'473482.2
2017-Mar-25 08:33N 24°26' E 117°53'0 0.0
2017-Mar-25 07:34N 24°26' E 117°53'0 0.0
2017-Mar-25 06:33N 24°26' E 117°53'716337922.8
2017-Mar-25 06:22N 05°16' W 004°02'71638834.4
2017-Mar-25 05:34N 24°26' E 117°53'0 0.0
2017-Mar-25 04:33N 24°26' E 117°53'4731327.0
2017-Mar-25 04:12N 31°59' E 120°26'473727.6
2017-Mar-25 03:33N 24°26' E 117°53'716315349.7
2017-Mar-25 03:05N 05°16' W 004°02'716312518.2
2017-Mar-25 02:31N 24°26' E 117°53'71633683927.4
2017-Mar-25 02:31N 05°16' W 004°02'72561536616.0
2017-Mar-25 02:30N 31°59' E 120°26'1 4.2
2017-Mar-25 02:18N 31°58' E 120°25'472642.0
2017-Mar-25 01:34N 24°26' E 117°53'716341392.4
2017-Mar-25 01:23N 05°16' W 004°02'71638601.6
2017-Mar-25 00:33N 24°26' E 117°53'0 0.0
2017-Mar-24 23:33N 24°26' E 117°53'47213375.8
2017-Mar-24 23:31N 31°58' E 120°26'1 8.6
2017-Mar-24 23:25N 31°59' E 120°26'725620765.1
2017-Mar-24 23:04N 05°16' W 004°02'716313775.4
2017-Mar-24 22:33N 24°26' E 117°53'4723945.1
2017-Mar-24 22:26N 31°58' E 120°27'725740190.8
2017-Mar-24 22:15N 05°16' W 004°02'72561135758.7
2017-Mar-24 22:15N 31°59' E 120°26'1 0.8
2017-Mar-24 21:33N 31°58' E 120°27'47270848.2
2017-Mar-24 21:33N 24°26' E 117°53'4737629.0
2017-Mar-24 21:29N 31°59' E 120°26'473509.7
2017-Mar-24 20:34N 24°26' E 117°53'4723108.5
2017-Mar-24 20:24N 31°58' E 120°27'1 4.8
2017-Mar-24 20:18N 31°59' E 120°26'473638.1
2017-Mar-24 19:33N 24°26' E 117°53'47312986.7
2017-Mar-24 19:31N 31°59' E 120°26'725668027.2
2017-Mar-24 19:25N 05°16' W 004°02'725764985.1
2017-Mar-24 19:18N 31°58' E 120°27'472634.2
2017-Mar-24 18:34N 24°26' E 117°53'4738339.4
2017-Mar-24 18:30N 31°59' E 120°26'473500.8
2017-Mar-24 17:34N 24°26' E 117°53'4736832.2
2017-Mar-24 17:29N 31°59' E 120°26'473505.0
2017-Mar-24 16:33N 24°26' E 117°53'4734012.3
2017-Mar-24 16:26N 31°59' E 120°26'473538.5
2017-Mar-24 15:33N 24°26' E 117°53'4738635.8
2017-Mar-24 15:30N 31°59' E 120°26'117.3
2017-Mar-24 15:28N 31°58' E 120°27'472501.0
2017-Mar-24 14:32N 24°26' E 117°53'4735614.7
2017-Mar-24 14:27N 31°59' E 120°26'473501.0
2017-Mar-24 13:30N 24°26' E 117°53'473481.0
2017-Mar-24 12:31N 31°59' E 120°26'4732118.6
2017-Mar-24 12:18N 24°26' E 117°53'0 0.0
2017-Mar-24 11:22N 24°26' E 117°53'0 0.0
2017-Mar-24 10:33N 24°26' E 117°53'0 0.0
2017-Mar-24 09:33N 24°26' E 117°53'0 0.0
2017-Mar-24 08:34N 24°26' E 117°53'45644341.7
2017-Mar-24 08:33N 21°12' E 110°26'456460.3
2017-Mar-24 07:34N 24°26' E 117°53'0 0.0
2017-Mar-24 06:33N 24°26' E 117°53'0 0.0
2017-Mar-24 05:34N 24°26' E 117°53'4731896.5
2017-Mar-24 05:19N 31°59' E 120°26'473629.1
2017-Mar-24 04:33N 24°26' E 117°53'822164415.3
2017-Mar-24 04:33N 37°47' E 121°31'3526666.4
2017-Mar-24 04:30N 31°59' E 120°26'1 1.2
2017-Mar-24 04:04N 31°58' E 120°27'472934.8
2017-Mar-24 03:33N 24°26' E 117°53'4735806.0
2017-Mar-24 03:29N 31°59' E 120°26'473508.3
2017-Mar-24 02:33N 24°26' E 117°53'0 0.0
2017-Mar-24 01:34N 24°26' E 117°53'473130916.1
2017-Mar-24 01:33N 31°59' E 120°27'72571866060.1
2017-Mar-24 01:33N 05°16' W 004°02'7256212376.0
2017-Mar-24 01:31N 31°59' E 120°26'473484.7
2017-Mar-24 00:33N 24°26' E 117°53'1152.0
2017-Mar-24 00:20N 24°25' E 118°05'1113.6
2017-Mar-23 23:32N 24°26' E 117°53'0 0.0
2017-Mar-23 22:31N 24°26' E 117°53'0 0.0
2017-Mar-23 21:34N 24°26' E 117°53'88254744.4
2017-Mar-23 21:33N 38°44' E 121°51'4113656.2
2017-Mar-23 21:26N 31°59' E 120°27'82326.9
2017-Mar-23 21:11N 31°14' E 121°47'158744.0
2017-Mar-23 21:11N 31°15' E 122°04'1930.3
2017-Mar-23 20:33N 31°18' E 121°43'1916933.1
2017-Mar-23 20:33N 31°15' E 122°04'465186181.9
2017-Mar-23 20:33N 24°26' E 117°53'716341861.1
2017-Mar-23 20:23N 05°16' W 004°02'73528932.6
2017-Mar-23 19:34N 31°15' E 122°04'2814576.0
2017-Mar-23 19:33N 31°24' E 121°33'461118533.8
2017-Mar-23 19:33N 24°26' E 117°53'7163661178.4
2017-Mar-23 19:33N 05°17' W 004°02'73127421.7
2017-Mar-23 18:33N 31°30' E 121°24'3868150.8
2017-Mar-23 18:33N 31°15' E 122°04'46552363.7
2017-Mar-23 18:33N 24°26' E 117°53'7162373671.8
2017-Mar-23 18:32N 05°17' W 004°01'7255791445.9
2017-Mar-23 18:31N 31°59' E 120°26'4748.8
2017-Mar-23 17:33N 31°37' E 121°15'73033755794.1
2017-Mar-23 17:33N 05°17' W 004°01'73516615985.6
2017-Mar-23 17:33N 31°15' E 122°04'4651675637.2
2017-Mar-23 17:33N 24°26' E 117°53'4733098.6
2017-Mar-23 17:24N 31°59' E 120°26'473561.1
2017-Mar-23 16:33N 24°26' E 117°53'470112773.7
2017-Mar-23 16:33N 31°44' E 121°06'5768691.1
2017-Mar-23 16:33N 31°15' E 122°04'7351882130.7
2017-Mar-23 16:33N 05°17' W 004°01'7332942728.4
2017-Mar-23 16:32N 31°17' E 121°44'79202.3
2017-Mar-23 16:09N 31°59' E 120°26'94160.0
2017-Mar-23 15:34N 31°15' E 122°04'870782952.8
2017-Mar-23 15:33N 21°12' E 110°26'859773118.4
2017-Mar-23 15:33N 31°10' E 121°53'597116.7
2017-Mar-23 15:33N 31°47' E 120°58'470422957.1
2017-Mar-23 15:33N 24°26' E 117°53'71622148673.0
2017-Mar-23 15:33N 05°17' W 004°01'7255621865.6
2017-Mar-23 15:32N 31°59' E 120°26'122.3
2017-Mar-23 15:30N 31°59' E 120°27'473500.7
2017-Mar-23 14:33N 24°26' E 117°53'455233999.5
2017-Mar-23 14:33N 31°04' E 122°03'1120361.1
2017-Mar-23 14:33N 31°15' E 122°04'0 0.0
2017-Mar-23 13:33N 31°15' E 122°04'0 0.0
2017-Mar-23 12:33N 31°15' E 122°04'94595.5
2017-Mar-23 12:24N 31°59' E 120°27'4732165.2
2017-Mar-23 12:11N 24°26' E 117°53'465743.7
2017-Mar-23 11:33N 31°15' E 122°04'941372.5
2017-Mar-23 11:29N 31°59' E 120°27'94101.0
2017-Mar-23 10:33N 31°15' E 122°04'942446.7
2017-Mar-23 10:31N 31°59' E 120°27'4732470.1
2017-Mar-23 10:20N 24°26' E 117°53'465605.1
2017-Mar-23 09:34N 31°15' E 122°04'46593091.0
2017-Mar-23 09:33N 24°26' E 117°53'716315196.0
2017-Mar-23 09:05N 05°16' W 004°02'716313687.7
2017-Mar-23 08:34N 24°26' E 117°53'4651675618.0
2017-Mar-23 08:34N 31°15' E 122°04'0 0.0
2017-Mar-23 07:34N 31°15' E 122°04'4651675618.0
2017-Mar-23 07:33N 24°26' E 117°53'4731430.6
2017-Mar-23 07:14N 31°59' E 120°26'94141.0
2017-Mar-23 06:33N 31°15' E 122°04'9416185.7
2017-Mar-23 06:33N 31°59' E 120°26'47389528.5
2017-Mar-23 06:33N 24°26' E 117°53'71631841975.8
2017-Mar-23 06:33N 05°16' W 004°02'73527466.5
2017-Mar-23 05:34N 31°15' E 122°04'942763.1
2017-Mar-23 05:31N 31°59' E 120°26'0 0.0
2017-Mar-23 04:33N 31°59' E 120°26'9422657.4
2017-Mar-23 04:33N 31°15' E 122°04'46523600.3
2017-Mar-23 04:31N 24°26' E 117°53'465480.3
2017-Mar-23 03:33N 31°15' E 122°04'4654528.7
2017-Mar-23 03:27N 24°26' E 117°53'465520.4
2017-Mar-23 02:34N 31°15' E 122°04'0 0.0
2017-Mar-23 01:33N 31°15' E 122°04'944785.4
2017-Mar-23 01:32N 31°59' E 120°26'9495.2
2017-Mar-23 00:33N 31°15' E 122°04'0 0.0
2017-Mar-22 23:33N 31°15' E 122°04'31159.4
2017-Mar-22 23:22N 31°12' E 121°29'3138.1
2017-Mar-22 22:33N 31°15' E 122°04'3015436.4
2017-Mar-22 22:33N 31°14' E 121°29'34119.7
2017-Mar-22 22:16N 31°03' E 122°07'1216.9
2017-Mar-22 21:34N 31°15' E 122°04'11652.9
2017-Mar-22 21:33N 31°05' E 122°02'1110.6
2017-Mar-22 20:33N 31°15' E 122°04'0 0.0
2017-Mar-22 19:33N 31°15' E 122°04'7352330855.9
2017-Mar-22 19:32N 05°16' W 004°02'73527521.6
2017-Mar-22 18:34N 31°15' E 122°04'7352194621.1
2017-Mar-22 18:31N 05°16' W 004°02'73527619.0
2017-Mar-22 17:33N 31°15' E 122°04'735236707.0
2017-Mar-22 17:21N 05°17' W 004°01'73529192.7
2017-Mar-22 16:33N 31°15' E 122°04'735138974.7
2017-Mar-22 16:22N 05°17' W 004°01'728328908.1
2017-Mar-22 16:07N 31°46' E 120°55'67119.2
2017-Mar-22 15:33N 31°15' E 122°04'67964.5
2017-Mar-22 15:29N 31°46' E 120°55'72837831.4
2017-Mar-22 14:33N 05°17' W 004°01'735113231958.7
2017-Mar-22 14:33N 31°15' E 122°04'67209.1
2017-Mar-22 14:14N 31°46' E 120°55'6798.0
2017-Mar-22 13:33N 31°15' E 122°04'67972.8
2017-Mar-22 13:29N 31°46' E 120°55'6771.6
2017-Mar-22 12:33N 31°15' E 122°04'0 0.0
2017-Mar-22 11:34N 31°15' E 122°04'94708.7
2017-Mar-22 11:26N 31°59' E 120°27'94107.5
2017-Mar-22 10:33N 31°15' E 122°04'2928.3
2017-Mar-22 09:31N 31°24' E 121°32'29105755.5
2017-Mar-22 09:31N 31°15' E 122°04'2425.4
2017-Mar-22 08:33N 31°22' E 121°37'634.3
2017-Mar-22 08:22N 31°23' E 121°30'3037.3
2017-Mar-22 07:33N 31°15' E 122°04'198748.3
2017-Mar-22 07:33N 31°20' E 121°42'122234.1
2017-Mar-22 07:33N 31°25' E 121°30'731926805.2
2017-Mar-22 07:17N 05°16' W 004°02'735210176.3
2017-Mar-22 06:33N 31°15' E 122°04'167121.4
2017-Mar-22 06:33N 31°16' E 121°46'22265.9
2017-Mar-22 06:28N 31°29' E 121°25'43264.3
2017-Mar-22 06:19N 31°02' E 122°05'7354101435.3
2017-Mar-22 06:14N 05°16' W 004°02'733810761.0
2017-Mar-22 05:33N 31°13' E 121°49'1347879.6
2017-Mar-22 05:33N 31°15' E 122°04'7352259495.2
2017-Mar-22 05:32N 05°16' W 004°02'7361646296.4
2017-Mar-22 05:31N 30°59' E 122°11'8012563.6
2017-Mar-22 05:31N 31°46' E 120°55'6063.3
2017-Mar-22 04:34N 31°10' E 121°52'1220792.0
2017-Mar-22 04:33N 31°15' E 122°04'673331.8
2017-Mar-22 04:32N 31°46' E 120°55'7285188665.0
2017-Mar-22 04:30N 05°16' W 004°02'73527787.2
2017-Mar-22 03:33N 31°15' E 122°04'102003.2
2017-Mar-22 03:33N 31°08' E 121°56'7345644956.5
2017-Mar-22 03:32N 05°16' W 004°02'73497427.9
2017-Mar-22 02:33N 31°06' E 122°00'10596.0
2017-Mar-22 02:32N 31°15' E 122°04'735249198.2
2017-Mar-22 02:23N 05°16' W 004°02'73528799.4
2017-Mar-22 01:33N 31°15' E 122°04'123951.2
2017-Mar-22 01:33N 31°03' E 122°04'7354133032.1
2017-Mar-22 01:29N 05°16' W 004°02'7302252775.7
2017-Mar-22 01:28N 31°09' E 121°10'4752.2
2017-Mar-22 00:33N 31°15' E 122°04'4710621.4
2017-Mar-22 00:33N 31°12' E 121°09'4747.3
2017-Mar-21 23:33N 31°15' E 122°04'735220113.0
2017-Mar-21 23:11N 05°16' W 004°02'735211680.8
2017-Mar-21 22:34N 31°15' E 122°04'0 0.0
2017-Mar-21 21:34N 31°15' E 122°04'608091574.4
2017-Mar-21 21:30N 33°37' W 117°55'611922074.1
2017-Mar-21 21:13N 31°46' E 120°55'67101.2
2017-Mar-21 20:33N 31°15' E 122°04'678272.4
2017-Mar-21 20:33N 31°46' E 120°55'6767.2
2017-Mar-21 19:33N 31°15' E 122°04'735217716.6
2017-Mar-21 19:08N 05°16' W 004°02'735212634.2
2017-Mar-21 18:34N 31°15' E 122°04'7352945304.2
2017-Mar-21 18:33N 05°16' W 004°02'73527407.9
2017-Mar-21 17:34N 31°15' E 122°04'7352912705.8
2017-Mar-21 17:33N 05°16' W 004°02'73527412.1
2017-Mar-21 16:34N 31°15' E 122°04'735227485.4
2017-Mar-21 16:17N 05°16' W 004°02'735210037.3
2017-Mar-21 15:34N 31°15' E 122°04'735249289.6
2017-Mar-21 15:25N 05°16' W 004°02'73528618.9
2017-Mar-21 14:33N 31°15' E 122°04'73522205706.5
2017-Mar-21 14:33N 05°16' W 004°02'730951393.8
2017-Mar-21 14:25N 31°32' E 121°20'74265290.5
2017-Mar-21 14:25N 30°20' E 121°36'6069.8
2017-Mar-21 13:33N 31°15' E 122°04'7352107595.5
2017-Mar-21 13:29N 05°16' W 004°02'73527977.2
2017-Mar-21 12:33N 31°15' E 122°04'95376.8
2017-Mar-21 12:18N 31°58' E 120°26'28140.1
2017-Mar-21 12:06N 31°46' E 120°55'67118.1
2017-Mar-21 11:32N 31°15' E 122°04'735221749.0
2017-Mar-21 11:12N 05°16' W 004°02'735211453.3
2017-Mar-21 10:34N 31°15' E 122°04'735250224.8
2017-Mar-21 10:25N 05°16' W 004°02'7256187913.8
2017-Mar-21 10:22N 31°58' E 120°26'95114.7
2017-Mar-21 09:33N 31°15' E 122°04'735254461.9
2017-Mar-21 09:25N 05°16' W 004°02'0 0.0
2017-Mar-21 08:33N 05°16' W 004°02'73525293711.4
2017-Mar-21 08:33N 31°15' E 122°04'4211293.5
2017-Mar-21 08:14N 38°06' E 120°13'720210690.9
2017-Mar-21 07:33N 05°16' W 004°02'73521323432.0
2017-Mar-21 07:33N 31°15' E 122°04'4182072.1
2017-Mar-21 07:21N 38°05' E 120°22'418527.6
2017-Mar-21 06:33N 31°15' E 122°04'41628240.8
2017-Mar-21 06:32N 38°04' E 120°31'721892805.5
2017-Mar-21 06:28N 05°16' W 004°02'72277973.4
2017-Mar-21 05:33N 38°02' E 120°41'41374287.9
2017-Mar-21 05:33N 31°15' E 122°04'410412.7
2017-Mar-21 04:33N 38°00' E 120°49'410738090.6
2017-Mar-21 04:33N 31°15' E 122°04'598156.4
2017-Mar-21 04:33N 31°06' E 120°56'58734.7
2017-Mar-21 04:28N 31°58' E 120°26'361395.5
2017-Mar-21 03:33N 37°59' E 120°58'40856425.4
2017-Mar-21 03:33N 31°15' E 122°04'0 0.0
2017-Mar-21 02:33N 31°15' E 122°04'95206.5
2017-Mar-21 02:06N 31°58' E 120°26'95175.8
2017-Mar-21 01:33N 31°15' E 122°04'95243.4
2017-Mar-21 01:10N 31°58' E 120°26'95154.4
2017-Mar-21 00:33N 31°15' E 122°04'3911407280.8
2017-Mar-21 00:33N 37°44' E 121°17'726224733.0
2017-Mar-21 00:16N 05°16' W 004°02'735210453.6
2017-Mar-20 23:34N 31°15' E 122°04'385173429.3
2017-Mar-20 23:33N 37°39' E 121°24'385386.0
2017-Mar-20 22:33N 31°15' E 122°04'38222920.0
2017-Mar-20 22:32N 37°36' E 121°25'3414128.9
2017-Mar-20 22:28N 31°58' E 120°26'95105.3
2017-Mar-20 21:34N 31°15' E 122°04'38236192.4
2017-Mar-20 21:33N 37°36' E 121°25'3412462.5
2017-Mar-20 21:25N 31°58' E 120°26'725649752.4
2017-Mar-20 21:16N 05°16' W 004°02'7321159720.1
2017-Mar-20 21:13N 31°03' E 121°28'393594.5
2017-Mar-20 20:33N 37°36' E 121°25'38247425.2
2017-Mar-20 20:33N 31°15' E 122°04'735251595.5
2017-Mar-20 20:24N 05°16' W 004°02'7284323755.3
2017-Mar-20 20:23N 31°46' E 120°55'350423.0
2017-Mar-20 19:33N 37°36' E 121°25'382458444.0
2017-Mar-20 19:33N 31°15' E 122°04'7352348269.4
2017-Mar-20 19:32N 05°16' W 004°02'7319289539.0
2017-Mar-20 19:31N 31°11' E 121°28'71734.9
2017-Mar-20 19:25N 31°58' E 120°26'341396.6
2017-Mar-20 18:33N 37°36' E 121°25'382343833.0
2017-Mar-20 18:33N 31°15' E 122°04'304911.2
2017-Mar-20 18:33N 31°14' E 121°29'705847.7
2017-Mar-20 18:32N 31°58' E 120°26'9597.1
2017-Mar-20 17:34N 31°15' E 122°04'382687666.0
2017-Mar-20 17:33N 37°36' E 121°25'39317250.7
2017-Mar-20 17:32N 31°04' E 122°04'7354180087.3
2017-Mar-20 17:30N 05°16' W 004°02'7256172980.5
2017-Mar-20 17:27N 31°58' E 120°26'95105.6
2017-Mar-20 16:33N 31°15' E 122°04'38265491.0
2017-Mar-20 16:33N 37°36' E 121°25'3411390.4
2017-Mar-20 16:18N 31°58' E 120°26'725650424.8
2017-Mar-20 16:10N 05°16' W 004°02'735212208.7
2017-Mar-20 15:34N 31°15' E 122°04'7352756243.7
2017-Mar-20 15:33N 05°16' W 004°02'72703738739.9
2017-Mar-20 15:33N 37°36' E 121°25'3412677.7
2017-Mar-20 15:25N 31°58' E 120°26'65770.5
2017-Mar-20 15:20N 31°22' E 121°30'3039.2
2017-Mar-20 14:34N 31°15' E 122°04'382687666.0
2017-Mar-20 14:33N 37°36' E 121°25'3414753.5
2017-Mar-20 14:29N 31°58' E 120°26'64722.8
2017-Mar-20 14:24N 31°25' E 121°30'3136.9
2017-Mar-20 13:33N 31°15' E 122°04'382137533.2
2017-Mar-20 13:33N 37°36' E 121°25'367220298.8
2017-Mar-20 13:33N 31°28' E 121°26'6060.1
2017-Mar-20 12:33N 31°58' E 120°25'95342590.9
2017-Mar-20 12:33N 31°15' E 122°04'4111304.1
2017-Mar-20 12:33N 31°31' E 121°21'364187286.9
2017-Mar-20 12:33N 37°36' E 121°25'386987.2
2017-Mar-20 12:10N 31°10' E 121°07'5082.3
2017-Mar-20 11:34N 31°15' E 122°04'95341925.3
2017-Mar-20 11:33N 31°58' E 120°25'54192704.3
2017-Mar-20 11:33N 31°32' E 121°20'243016.6
2017-Mar-20 11:33N 31°10' E 121°07'38639657.4
2017-Mar-20 11:32N 37°36' E 121°25'341347.3
2017-Mar-20 10:33N 31°58' E 120°25'59213945.4
2017-Mar-20 10:33N 31°10' E 121°07'5025551.8
2017-Mar-20 10:33N 31°15' E 122°04'38225006.0
2017-Mar-20 10:32N 37°36' E 121°25'3644942.2
2017-Mar-20 10:28N 31°32' E 121°20'5358.8
2017-Mar-20 09:33N 31°58' E 120°25'9537991.7
2017-Mar-20 09:33N 31°15' E 122°04'5059621.4
2017-Mar-20 09:33N 31°10' E 121°07'5926753.3
2017-Mar-20 09:33N 31°58' E 120°26'3411226341.4
2017-Mar-20 09:33N 37°36' E 121°25'382384.5
2017-Mar-20 08:34N 31°15' E 122°04'95170967.5
2017-Mar-20 08:33N 31°58' E 120°25'341204642.4
2017-Mar-20 08:33N 37°36' E 121°25'38663092.3
2017-Mar-20 08:33N 31°10' E 121°07'593243.1
2017-Mar-20 08:32N 31°58' E 120°26'1 0.6
2017-Mar-20 07:33N 31°58' E 120°25'34176740.9
2017-Mar-20 07:33N 37°36' E 121°25'386462946.4
2017-Mar-20 07:33N 31°10' E 121°07'4919658.7
2017-Mar-20 07:33N 31°15' E 122°04'952890.3
2017-Mar-20 07:31N 31°58' E 120°26'341354.9
2017-Mar-20 06:33N 37°36' E 121°25'341153481.8
2017-Mar-20 06:33N 31°58' E 120°25'9511397.8
2017-Mar-20 06:33N 31°15' E 122°04'47170105.4
2017-Mar-20 06:33N 31°10' E 121°09'6117023.9
2017-Mar-20 06:33N 31°58' E 120°26'9596.2
2017-Mar-20 05:33N 31°15' E 122°04'9511397.8
2017-Mar-20 05:33N 31°58' E 120°25'3411227854.2
2017-Mar-20 05:33N 37°36' E 121°25'34135037.7
2017-Mar-20 05:32N 31°58' E 120°26'725649190.6
2017-Mar-20 05:24N 05°16' W 004°02'73528814.1
2017-Mar-20 04:33N 31°15' E 122°04'9534310.2
2017-Mar-20 04:33N 32°02' E 120°27'33739147.3
2017-Mar-20 04:33N 37°36' E 121°25'3414379.7
2017-Mar-20 04:28N 31°58' E 120°26'7 7.7
2017-Mar-20 03:33N 32°01' E 120°33'3371214314.3
2017-Mar-20 03:33N 37°36' E 121°25'396356509.4
2017-Mar-20 03:33N 31°01' E 122°07'1414.1
2017-Mar-20 02:33N 31°15' E 122°04'117669.4
2017-Mar-20 02:33N 31°05' E 121°59'391234698.9
2017-Mar-20 02:33N 37°36' E 121°25'3412013.5
2017-Mar-20 02:23N 31°58' E 120°26'95114.5
2017-Mar-20 01:33N 31°15' E 122°04'139423.6
2017-Mar-20 01:33N 31°11' E 121°50'38386237.7
2017-Mar-20 01:33N 37°34' E 121°25'339781.7
2017-Mar-20 01:07N 31°58' E 120°25'95169.1
2017-Mar-20 00:33N 31°15' E 122°04'1934390.4
2017-Mar-20 00:33N 31°19' E 121°42'37658824.1
2017-Mar-20 00:33N 37°34' E 121°25'3393139.1
2017-Mar-20 00:27N 31°58' E 120°25'95107.1
2017-Mar-19 23:33N 31°15' E 122°04'272856.3
2017-Mar-19 23:33N 31°23' E 121°34'3711335391.9
2017-Mar-19 23:33N 37°34' E 121°25'3396636.6
2017-Mar-19 23:30N 31°58' E 120°25'103245.2
2017-Mar-19 23:05N 31°02' E 122°06'4 8.5
2017-Mar-19 22:33N 30°59' E 122°11'166564.1
2017-Mar-19 22:33N 31°15' E 122°04'95330.9
2017-Mar-19 22:16N 31°58' E 120°25'95133.4
2017-Mar-19 21:34N 31°15' E 122°04'381195690.6
2017-Mar-19 21:33N 37°34' E 121°25'33911306.6
2017-Mar-19 21:32N 31°58' E 120°26'9597.9
2017-Mar-19 20:34N 31°15' E 122°04'38080575.9
2017-Mar-19 20:33N 37°34' E 121°25'3393601.8
2017-Mar-19 20:28N 31°58' E 120°26'7256101240.5
2017-Mar-19 20:23N 05°16' W 004°02'72708759.2
2017-Mar-19 19:33N 37°34' E 121°25'33981395.5
2017-Mar-19 19:33N 31°58' E 120°26'9585266.2
2017-Mar-19 19:33N 31°15' E 122°04'608099937.4
2017-Mar-19 19:30N 33°37' W 117°55'666418860.2
2017-Mar-19 19:08N 05°16' W 004°02'727012481.3
2017-Mar-19 18:33N 37°37' E 121°26'383459786.9
2017-Mar-19 18:33N 31°15' E 122°04'956821.3
2017-Mar-19 18:32N 31°58' E 120°26'9596.4
2017-Mar-19 17:33N 31°15' E 122°04'38935884.5
2017-Mar-19 17:33N 37°42' E 121°16'34616816.2
2017-Mar-19 17:32N 31°58' E 120°26'725624900.1
2017-Mar-19 17:14N 05°16' W 004°02'735210856.7
2017-Mar-19 16:33N 31°15' E 122°04'7351129722.9
2017-Mar-19 16:30N 05°17' W 004°01'7254725415.9
2017-Mar-19 16:29N 31°58' E 120°26'653054.6
2017-Mar-19 16:28N 31°23' E 121°30'610478475.5
2017-Mar-19 16:24N 33°37' W 117°55'60807235.1
2017-Mar-19 15:33N 31°15' E 122°04'7351315041.6
2017-Mar-19 15:32N 05°17' W 004°01'725425527.9
2017-Mar-19 15:15N 31°58' E 120°26'601232.6
2017-Mar-19 15:12N 31°28' E 121°27'3554.5
2017-Mar-19 14:33N 31°15' E 122°04'3845919.6
2017-Mar-19 14:33N 31°30' E 121°23'  

Dump ship's entire track history